Ro North — LEAH — position and weather

sailwx.info

Track history (hours):
 
Tides and Currents Weather Stations Pressure Air Temp Water Temp Dewpoint Dewpoint Depression Visibility Wind Speed Wind Dir Waves Ship Positions

Ro North

Last reported at 2018-Jul-16 16:00 UTC. Time now 2018-Jul-16 16:00 UTC.
Position N 66°00' E 012°16'.

Length 82 m; draft 7.5 m.

Type: Cargo ship. MMSI: 258685000.

Date/timePositionNaut miles runAvg speedWind from/ knotsBaromVisibWave heightAir tempDewpointWater temp
2018-Jul-16 16:00N 66°00' E 012°16'0 0.0
2018-Jul-16 15:30N 66°00' E 012°16'0 0.0
2018-Jul-16 15:00N 66°00' E 012°16'0 0.0
2018-Jul-16 14:30N 66°00' E 012°16'0 0.0
2018-Jul-16 14:00N 66°00' E 012°16'0 0.0
2018-Jul-16 13:30N 66°00' E 012°16'0 0.0
2018-Jul-16 12:59N 66°00' E 012°16'0 0.0
2018-Jul-16 12:30N 66°00' E 012°16'0 0.0
2018-Jul-16 12:00N 66°00' E 012°16'0 0.0
2018-Jul-16 11:30N 66°00' E 012°16'0 0.0
2018-Jul-16 10:59N 66°00' E 012°16'0 0.0
2018-Jul-16 10:30N 66°00' E 012°16'0 0.0
2018-Jul-16 10:00N 66°00' E 012°16'0 0.0
2018-Jul-16 09:30N 66°00' E 012°16'0 0.0
2018-Jul-16 09:00N 66°00' E 012°16'0 0.0
2018-Jul-16 08:30N 66°00' E 012°16'0 0.0
2018-Jul-16 08:00N 66°00' E 012°16'0 0.0
2018-Jul-16 07:30N 66°00' E 012°16'0 0.0
2018-Jul-16 07:00N 66°00' E 012°16'0 0.0
2018-Jul-16 06:30N 66°00' E 012°16'0 0.0
2018-Jul-16 06:00N 66°00' E 012°16'0 0.0
2018-Jul-16 05:30N 66°00' E 012°16'0 0.0
2018-Jul-16 05:00N 66°00' E 012°16'0 0.0
2018-Jul-16 04:30N 66°00' E 012°16'0 0.0
2018-Jul-16 04:00N 66°00' E 012°16'0 0.0
2018-Jul-16 03:30N 66°00' E 012°16'0 0.0
2018-Jul-16 03:00N 66°00' E 012°16'0 0.0
2018-Jul-16 02:30N 66°00' E 012°16'0 0.0
2018-Jul-16 02:00N 66°00' E 012°16'0 0.1
2018-Jul-16 01:30N 66°00' E 012°16'3 6.1
2018-Jul-16 01:00N 66°02' E 012°10'5 9.5
2018-Jul-16 00:30N 66°07' E 012°07'5 9.0
2018-Jul-16 00:00N 66°10' E 012°13'5 9.9
2018-Jul-15 23:30N 66°13' E 012°24'5 9.6
2018-Jul-15 23:00N 66°14' E 012°35'5 9.3
2018-Jul-15 22:30N 66°10' E 012°40'0 0.5
2018-Jul-15 22:00N 66°10' E 012°39'0 0.4
2018-Jul-15 21:30N 66°10' E 012°40'0 0.4
2018-Jul-15 21:00N 66°10' E 012°40'0 0.5
2018-Jul-15 20:30N 66°10' E 012°41'0 0.0
2018-Jul-15 20:00N 66°10' E 012°41'0 0.0
2018-Jul-15 19:30N 66°10' E 012°41'0 0.1
2018-Jul-15 19:00N 66°10' E 012°41'0 0.0
2018-Jul-15 18:30N 66°10' E 012°41'0 0.0
2018-Jul-15 18:00N 66°10' E 012°41'0 0.3
2018-Jul-15 17:30N 66°10' E 012°40'0 0.5
2018-Jul-15 17:00N 66°10' E 012°40'0 0.6
2018-Jul-15 16:30N 66°10' E 012°40'0 0.1
2018-Jul-15 16:00N 66°10' E 012°40'0 0.1
2018-Jul-15 15:30N 66°10' E 012°40'0 0.1
2018-Jul-15 15:00N 66°10' E 012°40'0 0.1
2018-Jul-15 14:30N 66°10' E 012°40'0 0.1
2018-Jul-15 14:00N 66°10' E 012°40'0 0.3
2018-Jul-15 13:30N 66°10' E 012°40'0 0.5
2018-Jul-15 13:00N 66°10' E 012°40'0 0.2
2018-Jul-15 12:30N 66°10' E 012°40'0 0.4
2018-Jul-15 11:59N 66°09' E 012°40'1 2.0
2018-Jul-15 11:31N 66°10' E 012°40'1 1.5
2018-Jul-15 11:00N 66°10' E 012°39'0 0.5
2018-Jul-15 10:30N 66°10' E 012°40'1 1.7
2018-Jul-15 10:00N 66°10' E 012°40'1 1.2
2018-Jul-15 09:30N 66°10' E 012°40'0 0.8
2018-Jul-15 09:00N 66°09' E 012°40'1 2.7
2018-Jul-15 08:30N 66°11' E 012°39'4 8.7
2018-Jul-15 08:00N 66°14' E 012°32'510.9
2018-Jul-15 07:30N 66°12' E 012°20'510.6
2018-Jul-15 07:00N 66°09' E 012°09'510.2
2018-Jul-15 06:30N 66°04' E 012°08'5 9.9
2018-Jul-15 06:00N 66°00' E 012°15'0 0.5
2018-Jul-15 05:30N 65°60' E 012°16'0 0.0
2018-Jul-15 05:00N 65°60' E 012°16'0 0.0
2018-Jul-15 04:30N 65°60' E 012°16'0 0.0
2018-Jul-15 04:00N 65°60' E 012°16'0 0.0
2018-Jul-15 03:30N 65°60' E 012°16'0 0.0
2018-Jul-15 02:59N 65°60' E 012°16'0 0.0
2018-Jul-15 02:30N 65°60' E 012°16'0 0.0
2018-Jul-15 01:59N 65°60' E 012°16'0 0.0
2018-Jul-15 01:29N 65°60' E 012°16'0 0.0
2018-Jul-15 01:00N 65°60' E 012°16'0 0.0
2018-Jul-15 00:30N 65°60' E 012°16'0 0.0
2018-Jul-15 00:00N 65°60' E 012°16'0 0.0
2018-Jul-14 23:30N 65°60' E 012°16'0 0.0
2018-Jul-14 23:00N 65°60' E 012°16'0 0.0
2018-Jul-14 22:29N 65°60' E 012°16'0 0.0
2018-Jul-14 21:59N 65°60' E 012°16'0 0.0
2018-Jul-14 21:30N 65°60' E 012°16'0 0.0
2018-Jul-14 21:00N 65°60' E 012°16'0 0.0
2018-Jul-14 20:30N 65°60' E 012°16'0 0.0
2018-Jul-14 20:00N 65°60' E 012°16'0 0.0
2018-Jul-14 19:30N 65°60' E 012°16'0 0.0
2018-Jul-14 19:00N 65°60' E 012°16'0 0.0
2018-Jul-14 18:28N 65°60' E 012°16'0 0.0
2018-Jul-14 18:00N 65°60' E 012°16'0 0.0
2018-Jul-14 17:29N 65°60' E 012°16'0 0.0
2018-Jul-14 17:00N 65°60' E 012°16'0 0.0
2018-Jul-14 16:29N 65°60' E 012°16'0 0.0
2018-Jul-14 16:00N 65°60' E 012°16'0 0.0
2018-Jul-14 15:30N 65°60' E 012°16'0 0.0
2018-Jul-14 15:00N 65°60' E 012°16'0 0.0
2018-Jul-14 14:30N 65°60' E 012°16'0 0.0
2018-Jul-14 13:30N 65°60' E 012°16'0 0.0
2018-Jul-14 13:00N 65°60' E 012°16'0 0.0
2018-Jul-14 12:30N 65°60' E 012°16'0 0.0
2018-Jul-14 11:59N 65°60' E 012°16'0 0.0
2018-Jul-14 11:30N 65°60' E 012°16'0 0.2
2018-Jul-14 10:59N 66°00' E 012°16'0 0.0
2018-Jul-14 10:30N 66°00' E 012°16'0 0.0
2018-Jul-14 10:00N 66°00' E 012°16'0 0.0
2018-Jul-14 09:29N 66°00' E 012°16'0 0.0
2018-Jul-14 08:59N 66°00' E 012°16'0 0.0
2018-Jul-14 08:30N 66°00' E 012°16'0 0.0
2018-Jul-14 08:00N 66°00' E 012°16'0 0.0
2018-Jul-14 07:30N 66°00' E 012°16'0 0.0
2018-Jul-14 07:00N 66°00' E 012°16'0 0.0
2018-Jul-14 06:30N 66°00' E 012°16'0 0.0
2018-Jul-14 06:00N 66°00' E 012°16'0 0.0
2018-Jul-14 05:30N 66°00' E 012°16'0 0.0
2018-Jul-14 05:00N 66°00' E 012°16'0 0.0
2018-Jul-14 04:30N 66°00' E 012°16'0 0.0
2018-Jul-14 04:00N 66°00' E 012°16'0 0.0
2018-Jul-14 03:30N 66°00' E 012°16'0 0.0
2018-Jul-14 03:00N 66°00' E 012°16'0 0.0
2018-Jul-14 02:30N 66°00' E 012°16'0 0.0
2018-Jul-14 02:00N 66°00' E 012°16'0 0.0
2018-Jul-14 01:29N 66°00' E 012°16'0 0.0
2018-Jul-14 00:59N 66°00' E 012°16'0 0.0
2018-Jul-14 00:30N 66°00' E 012°16'3 5.3
2018-Jul-14 00:00N 66°02' E 012°11'5 9.5
2018-Jul-13 23:28N 66°06' E 012°07'4 9.1
2018-Jul-13 23:00N 66°10' E 012°12'510.0
2018-Jul-13 22:30N 66°12' E 012°23'5 9.8
2018-Jul-13 22:00N 66°14' E 012°35'4 9.0
2018-Jul-13 21:30N 66°10' E 012°40'1 1.2
2018-Jul-13 21:00N 66°10' E 012°40'0 0.4
2018-Jul-13 20:30N 66°10' E 012°41'0 0.0
2018-Jul-13 20:00N 66°10' E 012°41'0 0.3
2018-Jul-13 19:31N 66°10' E 012°41'0 0.3
2018-Jul-13 19:00N 66°10' E 012°41'0 0.0
2018-Jul-13 18:30N 66°10' E 012°41'0 0.8
2018-Jul-13 18:01N 66°10' E 012°40'1 1.8
2018-Jul-13 17:30N 66°11' E 012°40'4 9.0
2018-Jul-13 17:00N 66°14' E 012°32'611.6
2018-Jul-13 16:30N 66°12' E 012°19'611.2
2018-Jul-13 16:00N 66°08' E 012°08'610.7
2018-Jul-13 15:29N 66°03' E 012°09'4 8.1
2018-Jul-13 15:00N 66°00' E 012°16'0 0.0
2018-Jul-13 14:29N 66°00' E 012°16'0 0.0
2018-Jul-13 13:30N 66°00' E 012°16'0 0.0
2018-Jul-13 13:00N 66°00' E 012°16'0 0.0
2018-Jul-13 12:30N 66°00' E 012°16'0 0.0
2018-Jul-13 12:00N 66°00' E 012°16'0 0.0
2018-Jul-13 11:30N 66°00' E 012°16'0 0.0
2018-Jul-13 11:00N 66°00' E 012°16'0 0.0
2018-Jul-13 10:30N 66°00' E 012°16'0 0.0
2018-Jul-13 10:00N 66°00' E 012°16'0 0.0
2018-Jul-13 09:29N 66°00' E 012°16'0 0.0
2018-Jul-13 09:00N 66°00' E 012°16'0 0.0
2018-Jul-13 08:30N 66°00' E 012°16'0 0.0
2018-Jul-13 08:00N 66°00' E 012°16'0 0.0
2018-Jul-13 07:30N 66°00' E 012°16'0 0.0
2018-Jul-13 06:59N 66°00' E 012°16'0 0.0
2018-Jul-13 06:30N 66°00' E 012°16'0 0.0
2018-Jul-13 06:00N 66°00' E 012°16'0 0.0
2018-Jul-13 05:30N 66°00' E 012°16'0 0.0
2018-Jul-13 05:00N 66°00' E 012°16'0 0.0
2018-Jul-13 04:29N 66°00' E 012°16'0 0.0
2018-Jul-13 04:00N 66°00' E 012°16'0 0.0
2018-Jul-13 03:30N 66°00' E 012°16'0 0.3
2018-Jul-13 03:00N 66°00' E 012°16'5 9.5
2018-Jul-13 02:29N 66°04' E 012°08'510.4
2018-Jul-13 02:00N 66°09' E 012°09'510.5
2018-Jul-13 01:30N 66°12' E 012°19'510.6
2018-Jul-13 01:00N 66°14' E 012°31'4 8.5
2018-Jul-13 00:30N 66°11' E 012°39'2 3.2
2018-Jul-13 00:00N 66°10' E 012°41'0 0.0
2018-Jul-12 23:30N 66°10' E 012°41'0 0.0
2018-Jul-12 23:00N 66°10' E 012°41'0 0.3
2018-Jul-12 22:30N 66°09' E 012°41'0 0.0
2018-Jul-12 22:00N 66°09' E 012°41'0 0.0
2018-Jul-12 21:30N 66°09' E 012°41'1 2.5
2018-Jul-12 21:00N 66°10' E 012°39'5 9.2
2018-Jul-12 20:30N 66°14' E 012°32'611.1
2018-Jul-12 20:00N 66°12' E 012°19'510.6
2018-Jul-12 19:30N 66°09' E 012°08'610.8
2018-Jul-12 19:00N 66°03' E 012°09'4 8.8
2018-Jul-12 18:30N 66°00' E 012°16'0 0.0
2018-Jul-12 18:00N 66°00' E 012°16'0 0.0
2018-Jul-12 17:30N 66°00' E 012°16'0 0.0
2018-Jul-12 17:00N 66°00' E 012°16'0 0.0
2018-Jul-12 16:29N 66°00' E 012°16'0 0.0
2018-Jul-12 16:00N 66°00' E 012°16'0 0.0
2018-Jul-12 15:30N 66°00' E 012°16'0 0.0
2018-Jul-12 15:00N 66°00' E 012°16'0 0.0
2018-Jul-12 14:30N 66°00' E 012°16'0 0.0
2018-Jul-12 14:00N 66°00' E 012°16'0 0.0
2018-Jul-12 13:30N 66°00' E 012°16'0 0.0
2018-Jul-12 13:00N 66°00' E 012°16'0 0.0
2018-Jul-12 12:30N 66°00' E 012°16'0 0.0
2018-Jul-12 12:00N 66°00' E 012°16'0 0.0
2018-Jul-12 11:29N 66°00' E 012°16'0 0.0
2018-Jul-12 11:00N 66°00' E 012°16'0 0.0
2018-Jul-12 10:29N 66°00' E 012°16'0 0.0
2018-Jul-12 10:00N 66°00' E 012°16'0 0.0
2018-Jul-12 09:30N 66°00' E 012°16'0 0.0
2018-Jul-12 09:00N 66°00' E 012°16'0 0.0
2018-Jul-12 08:30N 66°00' E 012°16'0 0.0
2018-Jul-12 08:00N 66°00' E 012°16'0 0.0
2018-Jul-12 07:29N 66°00' E 012°16'0 0.0
2018-Jul-12 07:00N 66°00' E 012°16'0 0.0
2018-Jul-12 06:29N 66°00' E 012°16'0 0.0
2018-Jul-12 06:00N 66°00' E 012°16'0 0.0
2018-Jul-12 05:30N 66°00' E 012°16'0 0.0
2018-Jul-12 05:00N 66°00' E 012°16'0 0.0
2018-Jul-12 04:30N 66°00' E 012°16'0 0.0
2018-Jul-12 04:00N 66°00' E 012°16'0 0.0
2018-Jul-12 03:30N 66°00' E 012°16'0 0.0
2018-Jul-12 03:00N 66°00' E 012°16'2 4.1
2018-Jul-12 02:30N 66°01' E 012°12'510.4
2018-Jul-12 02:00N 66°06' E 012°07'5 9.9
2018-Jul-12 01:30N 66°10' E 012°13'510.9
2018-Jul-12 01:00N 66°13' E 012°25'5 9.9
2018-Jul-12 00:31N 66°13' E 012°37'4 7.0
2018-Jul-12 00:00N 66°10' E 012°40'1 1.6
2018-Jul-11 23:30N 66°09' E 012°41'0 0.1
2018-Jul-11 23:00N 66°09' E 012°41'0 0.0
2018-Jul-11 22:30N 66°09' E 012°41'0 0.0
2018-Jul-11 22:00N 66°09' E 012°41'0 0.1
2018-Jul-11 21:30N 66°09' E 012°41'3 5.5
2018-Jul-11 21:00N 66°12' E 012°38'4 8.7
2018-Jul-11 20:30N 66°13' E 012°28'511.0
2018-Jul-11 20:00N 66°11' E 012°16'510.3
2018-Jul-11 19:31N 66°07' E 012°07'510.8
2018-Jul-11 19:00N 66°02' E 012°10'3 6.2
2018-Jul-11 18:30N 66°00' E 012°16'0 0.0
2018-Jul-11 17:59N 66°00' E 012°16'0 0.0
2018-Jul-11 17:30N 66°00' E 012°16'0 0.0
2018-Jul-11 16:59N 66°00' E 012°16'0 0.0
2018-Jul-11 16:30N 66°00' E 012°16'0 0.0
2018-Jul-11 16:00N 66°00' E 012°16'0 0.0
2018-Jul-11 15:30N 66°00' E 012°16'0 0.0
2018-Jul-11 15:00N 66°00' E 012°16'0 0.0
2018-Jul-11 14:30N 66°00' E 012°16'0 0.0
2018-Jul-11 14:00N 66°00' E 012°16'0 0.0
2018-Jul-11 13:30N 66°00' E 012°16'0 0.0
2018-Jul-11 13:00N 66°00' E 012°16'0 0.0
2018-Jul-11 12:29N 66°00' E 012°16'0 0.0
2018-Jul-11 12:00N 66°00' E 012°16'0 0.0
2018-Jul-11 11:29N 66°00' E 012°16'0 0.0
2018-Jul-11 11:00N 66°00' E 012°16'0 0.0
2018-Jul-11 10:30N 66°00' E 012°16'0 0.0
2018-Jul-11 10:00N 66°00' E 012°16'0 0.0
2018-Jul-11 09:30N 66°00' E 012°16'0 0.0
2018-Jul-11 09:00N 66°00' E 012°16'0 0.0
2018-Jul-11 08:30N 66°00' E 012°16'0 0.0
2018-Jul-11 08:00N 66°00' E 012°16'0 0.0
2018-Jul-11 07:30N 66°00' E 012°16'0 0.0
2018-Jul-11 07:00N 66°00' E 012°16'0 0.0
2018-Jul-11 06:30N 66°00' E 012°16'0 0.0
2018-Jul-11 06:00N 66°00' E 012°16'0 0.0
2018-Jul-11 05:29N 66°00' E 012°16'0 0.0
2018-Jul-11 05:00N 66°00' E 012°16'0 0.0
2018-Jul-11 04:30N 66°00' E 012°16'0 0.0
2018-Jul-11 04:00N 66°00' E 012°16'0 0.0
2018-Jul-11 03:30N 66°00' E 012°16'0 0.1
2018-Jul-11 03:00N 66°00' E 012°16'4 8.3
2018-Jul-11 02:29N 66°03' E 012°09'510.4
2018-Jul-11 02:00N 66°08' E 012°08'510.0
2018-Jul-11 01:30N 66°11' E 012°17'510.7
2018-Jul-11 01:01N 66°14' E 012°29'4 8.2
2018-Jul-11 00:30N 66°12' E 012°39'2 4.5
2018-Jul-11 00:00N 66°10' E 012°41'0 0.2
2018-Jul-10 23:30N 66°10' E 012°41'0 0.0
2018-Jul-10 23:00N 66°10' E 012°41'0 0.0
2018-Jul-10 22:30N 66°10' E 012°41'0 0.5
2018-Jul-10 22:01N 66°10' E 012°40'0 0.4
2018-Jul-10 21:30N 66°10' E 012°40'0 0.7
2018-Jul-10 21:00N 66°10' E 012°41'3 5.7
2018-Jul-10 20:29N 66°12' E 012°38'4 9.0
2018-Jul-10 20:00N 66°13' E 012°27'611.3
2018-Jul-10 19:30N 66°11' E 012°15'510.4
2018-Jul-10 19:00N 66°06' E 012°07'510.9
2018-Jul-10 18:30N 66°01' E 012°12'2 4.4
2018-Jul-10 18:00N 66°00' E 012°16'0 0.0
2018-Jul-10 17:30N 66°00' E 012°16'0 0.0
2018-Jul-10 17:00N 66°00' E 012°16'0 0.0
2018-Jul-10 16:30N 66°00' E 012°16'0 0.0
2018-Jul-10 16:00N 66°00' E 012°16'0 0.0
2018-Jul-10 15:30N 66°00' E 012°16'0 0.0
2018-Jul-10 14:59N 66°00' E 012°16'0 0.0
2018-Jul-10 14:30N 66°00' E 012°16'0 0.0
2018-Jul-10 14:00N 66°00' E 012°16'0 0.0
2018-Jul-10 13:30N 66°00' E 012°16'0 0.0
2018-Jul-10 13:00N 66°00' E 012°16'0 0.0
2018-Jul-10 12:30N 66°00' E 012°16'0 0.0
2018-Jul-10 12:00N 66°00' E 012°16'0 0.0
2018-Jul-10 11:30N 66°00' E 012°16'0 0.0
2018-Jul-10 11:00N 66°00' E 012°16'0 0.0
2018-Jul-10 10:30N 66°00' E 012°16'0 0.0
2018-Jul-10 10:00N 66°00' E 012°16'0 0.0
2018-Jul-10 09:30N 66°00' E 012°16'0 0.0
2018-Jul-10 09:00N 66°00' E 012°16'0 0.0
2018-Jul-10 08:30N 66°00' E 012°16'0 0.0
2018-Jul-10 08:00N 66°00' E 012°16'0 0.0
2018-Jul-10 07:29N 66°00' E 012°16'0 0.0
2018-Jul-10 07:00N 66°00' E 012°16'0 0.0
2018-Jul-10 06:30N 66°00' E 012°16'0 0.0
2018-Jul-10 06:00N 66°00' E 012°16'0 0.0
2018-Jul-10 05:30N 66°00' E 012°16'0 0.0
2018-Jul-10 05:00N 66°00' E 012°16'0 0.5
2018-Jul-10 04:30N 66°00' E 012°16'5 9.6
2018-Jul-10 04:00N 66°04' E 012°08'510.0
2018-Jul-10 03:30N 66°09' E 012°09'5 9.8
2018-Jul-10 03:00N 66°12' E 012°18'510.2
2018-Jul-10 02:30N 66°14' E 012°30'4 8.2
2018-Jul-10 02:00N 66°12' E 012°39'2 4.1
2018-Jul-10 01:30N 66°10' E 012°41'0 0.0
2018-Jul-10 01:00N 66°10' E 012°41'0 0.0
2018-Jul-10 00:30N 66°10' E 012°41'0 0.1
2018-Jul-10 00:00N 66°10' E 012°41'0 0.3
2018-Jul-09 23:30N 66°10' E 012°41'0 0.0
2018-Jul-09 23:00N 66°10' E 012°41'0 0.0
2018-Jul-09 22:30N 66°10' E 012°41'0 0.0
2018-Jul-09 22:00N 66°10' E 012°41'0 0.7
2018-Jul-09 21:30N 66°10' E 012°41'4 8.5
2018-Jul-09 21:00N 66°14' E 012°36'510.3
2018-Jul-09 20:30N 66°13' E 012°24'510.8
2018-Jul-09 20:00N 66°10' E 012°12'510.4
2018-Jul-09 19:29N 66°05' E 012°08'510.1
2018-Jul-09 18:59N 66°01' E 012°14'1 2.3
2018-Jul-09 18:29N 66°00' E 012°16'0 0.0
2018-Jul-09 17:59N 66°00' E 012°16'0 0.0
2018-Jul-09 17:30N 66°00' E 012°16'0 0.0
2018-Jul-09 17:00N 66°00' E 012°16'0 0.0
2018-Jul-09 16:30N 66°00' E 012°16'0 0.0
2018-Jul-09 16:00N 66°00' E 012°16'0 0.0
2018-Jul-09 15:30N 66°00' E 012°16'0 0.0
2018-Jul-09 15:00N 66°00' E 012°16'0 0.0
2018-Jul-09 14:30N 66°00' E 012°16'0 0.0
2018-Jul-09 13:58N 66°00' E 012°16'0 0.0
2018-Jul-09 13:29N 66°00' E 012°16'0 0.0
2018-Jul-09 13:00N 66°00' E 012°16'0 0.0
2018-Jul-09 12:30N 66°00' E 012°16'0 0.0
2018-Jul-09 12:00N 66°00' E 012°16'0 0.0
2018-Jul-09 11:29N 66°00' E 012°16'0 0.0
2018-Jul-09 10:59N 66°00' E 012°16'0 0.0
2018-Jul-09 10:29N 66°00' E 012°16'0 0.0
2018-Jul-09 10:00N 66°00' E 012°16'0 0.0
2018-Jul-09 09:29N 66°00' E 012°16'0 0.0
2018-Jul-09 08:59N 66°00' E 012°16'0 0.0
2018-Jul-09 08:30N 66°00' E 012°16'0 0.0
2018-Jul-09 08:00N 66°00' E 012°16'0 0.0
2018-Jul-09 07:30N 66°00' E 012°16'0 0.0
2018-Jul-09 07:00N 66°00' E 012°16'0 0.0
2018-Jul-09 06:29N 66°00' E 012°16'0 0.0
2018-Jul-09 06:00N 66°00' E 012°16'0 0.0
2018-Jul-09 05:30N 66°00' E 012°16'0 0.0
2018-Jul-09 05:00N 66°00' E 012°16'0 0.0
2018-Jul-09 04:29N 66°00' E 012°16'0 0.0
2018-Jul-09 04:00N 66°00' E 012°16'0 0.0
2018-Jul-09 03:30N 66°00' E 012°16'0 0.0
2018-Jul-09 03:00N 66°00' E 012°16'0 0.0
2018-Jul-09 02:30N 66°00' E 012°16'0 0.0
2018-Jul-09 02:00N 66°00' E 012°16'0 0.0
2018-Jul-09 01:30N 66°00' E 012°16'3 5.4
2018-Jul-09 01:00N 66°02' E 012°11'5 9.6
2018-Jul-09 00:29N 66°06' E 012°07'4 8.8
2018-Jul-09 00:00N 66°10' E 012°12'5 9.4
2018-Jul-08 23:30N 66°12' E 012°22'5 9.5
2018-Jul-08 23:00N 66°14' E 012°33'4 8.9
2018-Jul-08 22:30N 66°10' E 012°39'1 1.6
2018-Jul-08 22:00N 66°10' E 012°40'0 0.5
2018-Jul-08 21:30N 66°09' E 012°40'0 0.3
2018-Jul-08 21:00N 66°10' E 012°40'0 0.1
2018-Jul-08 20:31N 66°10' E 012°40'0 0.9
2018-Jul-08 20:00N 66°10' E 012°41'0 0.4
2018-Jul-08 19:30N 66°10' E 012°41'0 0.0
2018-Jul-08 19:00N 66°10' E 012°41'0 0.0
2018-Jul-08 18:30N 66°10' E 012°41'0 0.0
2018-Jul-08 18:00N 66°10' E 012°41'0 0.0
2018-Jul-08 17:30N 66°10' E 012°41'0 0.0
2018-Jul-08 17:00N 66°10' E 012°41'1 1.3
2018-Jul-08 16:31N 66°09' E 012°40'0 0.7
2018-Jul-08 16:00N 66°10' E 012°40'0 0.2
2018-Jul-08 15:30N 66°10' E 012°40'0 0.3
2018-Jul-08 15:00N 66°10' E 012°40'0 0.0
2018-Jul-08 14:30N 66°10' E 012°40'0 0.5
2018-Jul-08 14:00N 66°10' E 012°40'0 0.1
2018-Jul-08 13:30N 66°10' E 012°40'0 0.1
2018-Jul-08 13:00N 66°10' E 012°40'0 0.2
2018-Jul-08 12:30N 66°10' E 012°40'0 0.5
2018-Jul-08 12:00N 66°10' E 012°40'0 0.2
2018-Jul-08 11:30N 66°10' E 012°40'1 1.9
2018-Jul-08 11:00N 66°10' E 012°39'1 1.5
2018-Jul-08 10:30N 66°10' E 012°40'0 0.7
2018-Jul-08 10:00N 66°09' E 012°40'1 1.5
2018-Jul-08 09:30N 66°10' E 012°40'0 0.7
2018-Jul-08 09:01N 66°10' E 012°40'3 5.0
2018-Jul-08 08:30N 66°12' E 012°38'4 8.2
2018-Jul-08 08:00N 66°13' E 012°29'510.7
2018-Jul-08 07:30N 66°11' E 012°16'510.3
2018-Jul-08 07:00N 66°07' E 012°07'510.7
2018-Jul-08 06:30N 66°02' E 012°10'3 6.6
2018-Jul-08 06:00N 66°00' E 012°16'0 0.3
2018-Jul-08 05:30N 66°00' E 012°16'0 0.0
2018-Jul-08 05:00N 66°00' E 012°16'0 0.0
2018-Jul-08 04:30N 66°00' E 012°16'0 0.0
2018-Jul-08 04:00N 66°00' E 012°16'0 0.0
2018-Jul-08 03:30N 66°00' E 012°16'0 0.0
2018-Jul-08 03:00N 66°00' E 012°16'0 0.0
2018-Jul-08 02:30N 66°00' E 012°16'0 0.0
2018-Jul-08 01:59N 66°00' E 012°16'0 0.0
2018-Jul-08 01:30N 66°00' E 012°16'0 0.0
2018-Jul-08 01:00N 66°00' E 012°16'0 0.0
2018-Jul-08 00:30N 66°00' E 012°16'0 0.0
2018-Jul-08 00:00N 66°00' E 012°16'0 0.0
2018-Jul-07 23:30N 66°00' E 012°16'0 0.0
2018-Jul-07 23:00N 66°00' E 012°16'0 0.0
2018-Jul-07 22:30N 66°00' E 012°16'0 0.0
2018-Jul-07 22:00N 66°00' E 012°16'0 0.0
2018-Jul-07 21:29N 66°00' E 012°16'0 0.0
2018-Jul-07 21:00N 66°00' E 012°16'0 0.0
2018-Jul-07 20:29N 66°00' E 012°16'0 0.0
2018-Jul-07 20:00N 66°00' E 012°16'0 0.0
2018-Jul-07 19:30N 66°00' E 012°16'0 0.0
2018-Jul-07 19:00N 66°00' E 012°16'0 0.0
2018-Jul-07 18:30N 66°00' E 012°16'0 0.0
2018-Jul-07 18:00N 66°00' E 012°16'0 0.0
2018-Jul-07 17:30N 66°00' E 012°16'0 0.0
2018-Jul-07 17:00N 66°00' E 012°16'0 0.0
2018-Jul-07 16:30N 66°00' E 012°16'0 0.0
2018-Jul-07 15:59N 66°00' E 012°16'0 0.0
2018-Jul-07 15:30N 66°00' E 012°16'0 0.0
2018-Jul-07 15:00N 66°00' E 012°16'0 0.0
2018-Jul-07 14:30N 66°00' E 012°16'0 0.0
2018-Jul-07 14:00N 66°00' E 012°16'0 0.0
2018-Jul-07 13:30N 66°00' E 012°16'0 0.0
2018-Jul-07 13:00N 66°00' E 012°16'0 0.0
2018-Jul-07 12:30N 66°00' E 012°16'0 0.0
2018-Jul-07 12:00N 66°00' E 012°16'0 0.0
2018-Jul-07 11:30N 66°00' E 012°16'0 0.0
2018-Jul-07 11:00N 66°00' E 012°16'0 0.0
2018-Jul-07 10:30N 66°00' E 012°16'0 0.0
2018-Jul-07 10:00N 66°00' E 012°16'0 0.0
2018-Jul-07 09:30N 66°00' E 012°16'0 0.0
2018-Jul-07 09:00N 66°00' E 012°16'0 0.0
2018-Jul-07 08:30N 66°00' E 012°16'0 0.0
2018-Jul-07 07:59N 66°00' E 012°16'0 0.0
2018-Jul-07 07:29N 66°00' E 012°16'0 0.0
2018-Jul-07 07:00N 66°00' E 012°16'0 0.0
2018-Jul-07 06:29N 66°00' E 012°16'0 0.0
2018-Jul-07 05:59N 66°00' E 012°16'0 0.0
2018-Jul-07 05:30N 66°00' E 012°16'0 0.0
2018-Jul-07 05:00N 66°00' E 012°16'0 0.0
2018-Jul-07 04:29N 66°00' E 012°16'0 0.0
2018-Jul-07 04:00N 66°00' E 012°16'0 0.0
2018-Jul-07 03:30N 66°00' E 012°16'0 0.0
2018-Jul-07 03:00N 66°00' E 012°16'0 0.0
2018-Jul-07 02:30N 66°00' E 012°16'0 0.0
2018-Jul-07 01:59N 66°00' E 012°16'0 0.0
2018-Jul-07 01:29N 66°00' E 012°16'0 0.0
2018-Jul-07 01:00N 66°00' E 012°16'0 0.0
2018-Jul-07 00:29N 66°00' E 012°16'0 0.0
2018-Jul-07 00:00N 66°00' E 012°16'0 0.0
2018-Jul-06 23:30N 66°00' E 012°16'0 0.0
2018-Jul-06 22:59N 66°00' E 012°16'0 0.0
2018-Jul-06 22:30N 66°00' E 012°16'0 0.0
2018-Jul-06 22:00N 66°00' E 012°16'0 0.0
2018-Jul-06 21:30N 66°00' E 012°16'0 0.0
2018-Jul-06 20:59N 66°00' E 012°16'0 0.0
2018-Jul-06 20:30N 66°00' E 012°16'0 0.0
2018-Jul-06 20:00N 66°00' E 012°16'0 0.0
2018-Jul-06 19:29N 66°00' E 012°16'0 0.0
2018-Jul-06 19:00N 66°00' E 012°16'0 0.0
2018-Jul-06 18:30N 66°00' E 012°16'0 0.0
2018-Jul-06 18:00N 66°00' E 012°16'0 0.0
2018-Jul-06 17:30N 66°00' E 012°16'0 0.0
2018-Jul-06 17:00N 66°00' E 012°16'0 0.0
2018-Jul-06 16:29N 66°00' E 012°16'0 0.0
2018-Jul-06 16:00N 66°00' E 012°16'  
Track history (hours):
 
Tides and Currents Weather Stations Pressure Air Temp Water Temp Dewpoint Dewpoint Depression Visibility Wind Speed Wind Dir Waves Ship Positions

Ro North

Last reported at 2018-Jul-16 16:00 UTC. Time now 2018-Jul-16 16:00 UTC.
Position N 66°00' E 012°16'.

Length 82 m; draft 7.5 m.

Type: Cargo ship. MMSI: 258685000.

Date/timePositionNaut miles runAvg speedWind from/ knotsBaromVisibWave heightAir tempDewpointWater temp
2018-Jul-16 16:00N 66°00' E 012°16'0 0.0
2018-Jul-16 15:30N 66°00' E 012°16'0 0.0
2018-Jul-16 15:00N 66°00' E 012°16'0 0.0
2018-Jul-16 14:30N 66°00' E 012°16'0 0.0
2018-Jul-16 14:00N 66°00' E 012°16'0 0.0
2018-Jul-16 13:30N 66°00' E 012°16'0 0.0
2018-Jul-16 12:59N 66°00' E 012°16'0 0.0
2018-Jul-16 12:30N 66°00' E 012°16'0 0.0
2018-Jul-16 12:00N 66°00' E 012°16'0 0.0
2018-Jul-16 11:30N 66°00' E 012°16'0 0.0
2018-Jul-16 10:59N 66°00' E 012°16'0 0.0
2018-Jul-16 10:30N 66°00' E 012°16'0 0.0
2018-Jul-16 10:00N 66°00' E 012°16'0 0.0
2018-Jul-16 09:30N 66°00' E 012°16'0 0.0
2018-Jul-16 09:00N 66°00' E 012°16'0 0.0
2018-Jul-16 08:30N 66°00' E 012°16'0 0.0
2018-Jul-16 08:00N 66°00' E 012°16'0 0.0
2018-Jul-16 07:30N 66°00' E 012°16'0 0.0
2018-Jul-16 07:00N 66°00' E 012°16'0 0.0
2018-Jul-16 06:30N 66°00' E 012°16'0 0.0
2018-Jul-16 06:00N 66°00' E 012°16'0 0.0
2018-Jul-16 05:30N 66°00' E 012°16'0 0.0
2018-Jul-16 05:00N 66°00' E 012°16'0 0.0
2018-Jul-16 04:30N 66°00' E 012°16'0 0.0
2018-Jul-16 04:00N 66°00' E 012°16'0 0.0
2018-Jul-16 03:30N 66°00' E 012°16'0 0.0
2018-Jul-16 03:00N 66°00' E 012°16'0 0.0
2018-Jul-16 02:30N 66°00' E 012°16'0 0.0
2018-Jul-16 02:00N 66°00' E 012°16'0 0.1
2018-Jul-16 01:30N 66°00' E 012°16'3 6.1
2018-Jul-16 01:00N 66°02' E 012°10'5 9.5
2018-Jul-16 00:30N 66°07' E 012°07'5 9.0
2018-Jul-16 00:00N 66°10' E 012°13'5 9.9
2018-Jul-15 23:30N 66°13' E 012°24'5 9.6
2018-Jul-15 23:00N 66°14' E 012°35'5 9.3
2018-Jul-15 22:30N 66°10' E 012°40'0 0.5
2018-Jul-15 22:00N 66°10' E 012°39'0 0.4
2018-Jul-15 21:30N 66°10' E 012°40'0 0.4
2018-Jul-15 21:00N 66°10' E 012°40'0 0.5
2018-Jul-15 20:30N 66°10' E 012°41'0 0.0
2018-Jul-15 20:00N 66°10' E 012°41'0 0.0
2018-Jul-15 19:30N 66°10' E 012°41'0 0.1
2018-Jul-15 19:00N 66°10' E 012°41'0 0.0
2018-Jul-15 18:30N 66°10' E 012°41'0 0.0
2018-Jul-15 18:00N 66°10' E 012°41'0 0.3
2018-Jul-15 17:30N 66°10' E 012°40'0 0.5
2018-Jul-15 17:00N 66°10' E 012°40'0 0.6
2018-Jul-15 16:30N 66°10' E 012°40'0 0.1
2018-Jul-15 16:00N 66°10' E 012°40'0 0.1
2018-Jul-15 15:30N 66°10' E 012°40'0 0.1
2018-Jul-15 15:00N 66°10' E 012°40'0 0.1
2018-Jul-15 14:30N 66°10' E 012°40'0 0.1
2018-Jul-15 14:00N 66°10' E 012°40'0 0.3
2018-Jul-15 13:30N 66°10' E 012°40'0 0.5
2018-Jul-15 13:00N 66°10' E 012°40'0 0.2
2018-Jul-15 12:30N 66°10' E 012°40'0 0.4
2018-Jul-15 11:59N 66°09' E 012°40'1 2.0
2018-Jul-15 11:31N 66°10' E 012°40'1 1.5
2018-Jul-15 11:00N 66°10' E 012°39'0 0.5
2018-Jul-15 10:30N 66°10' E 012°40'1 1.7
2018-Jul-15 10:00N 66°10' E 012°40'1 1.2
2018-Jul-15 09:30N 66°10' E 012°40'0 0.8
2018-Jul-15 09:00N 66°09' E 012°40'1 2.7
2018-Jul-15 08:30N 66°11' E 012°39'4 8.7
2018-Jul-15 08:00N 66°14' E 012°32'510.9
2018-Jul-15 07:30N 66°12' E 012°20'510.6
2018-Jul-15 07:00N 66°09' E 012°09'510.2
2018-Jul-15 06:30N 66°04' E 012°08'5 9.9
2018-Jul-15 06:00N 66°00' E 012°15'0 0.5
2018-Jul-15 05:30N 65°60' E 012°16'0 0.0
2018-Jul-15 05:00N 65°60' E 012°16'0 0.0
2018-Jul-15 04:30N 65°60' E 012°16'0 0.0
2018-Jul-15 04:00N 65°60' E 012°16'0 0.0
2018-Jul-15 03:30N 65°60' E 012°16'0 0.0
2018-Jul-15 02:59N 65°60' E 012°16'0 0.0
2018-Jul-15 02:30N 65°60' E 012°16'0 0.0
2018-Jul-15 01:59N 65°60' E 012°16'0 0.0
2018-Jul-15 01:29N 65°60' E 012°16'0 0.0
2018-Jul-15 01:00N 65°60' E 012°16'0 0.0
2018-Jul-15 00:30N 65°60' E 012°16'0 0.0
2018-Jul-15 00:00N 65°60' E 012°16'0 0.0
2018-Jul-14 23:30N 65°60' E 012°16'0 0.0
2018-Jul-14 23:00N 65°60' E 012°16'0 0.0
2018-Jul-14 22:29N 65°60' E 012°16'0 0.0
2018-Jul-14 21:59N 65°60' E 012°16'0 0.0
2018-Jul-14 21:30N 65°60' E 012°16'0 0.0
2018-Jul-14 21:00N 65°60' E 012°16'0 0.0
2018-Jul-14 20:30N 65°60' E 012°16'0 0.0
2018-Jul-14 20:00N 65°60' E 012°16'0 0.0
2018-Jul-14 19:30N 65°60' E 012°16'0 0.0
2018-Jul-14 19:00N 65°60' E 012°16'0 0.0
2018-Jul-14 18:28N 65°60' E 012°16'0 0.0
2018-Jul-14 18:00N 65°60' E 012°16'0 0.0
2018-Jul-14 17:29N 65°60' E 012°16'0 0.0
2018-Jul-14 17:00N 65°60' E 012°16'0 0.0
2018-Jul-14 16:29N 65°60' E 012°16'0 0.0
2018-Jul-14 16:00N 65°60' E 012°16'0 0.0
2018-Jul-14 15:30N 65°60' E 012°16'0 0.0
2018-Jul-14 15:00N 65°60' E 012°16'0 0.0
2018-Jul-14 14:30N 65°60' E 012°16'0 0.0
2018-Jul-14 13:30N 65°60' E 012°16'0 0.0
2018-Jul-14 13:00N 65°60' E 012°16'0 0.0
2018-Jul-14 12:30N 65°60' E 012°16'0 0.0
2018-Jul-14 11:59N 65°60' E 012°16'0 0.0
2018-Jul-14 11:30N 65°60' E 012°16'0 0.2
2018-Jul-14 10:59N 66°00' E 012°16'0 0.0
2018-Jul-14 10:30N 66°00' E 012°16'0 0.0
2018-Jul-14 10:00N 66°00' E 012°16'0 0.0
2018-Jul-14 09:29N 66°00' E 012°16'0 0.0
2018-Jul-14 08:59N 66°00' E 012°16'0 0.0
2018-Jul-14 08:30N 66°00' E 012°16'0 0.0
2018-Jul-14 08:00N 66°00' E 012°16'0 0.0
2018-Jul-14 07:30N 66°00' E 012°16'0 0.0
2018-Jul-14 07:00N 66°00' E 012°16'0 0.0
2018-Jul-14 06:30N 66°00' E 012°16'0 0.0
2018-Jul-14 06:00N 66°00' E 012°16'0 0.0
2018-Jul-14 05:30N 66°00' E 012°16'0 0.0
2018-Jul-14 05:00N 66°00' E 012°16'0 0.0
2018-Jul-14 04:30N 66°00' E 012°16'0 0.0
2018-Jul-14 04:00N 66°00' E 012°16'0 0.0
2018-Jul-14 03:30N 66°00' E 012°16'0 0.0
2018-Jul-14 03:00N 66°00' E 012°16'0 0.0
2018-Jul-14 02:30N 66°00' E 012°16'0 0.0
2018-Jul-14 02:00N 66°00' E 012°16'0 0.0
2018-Jul-14 01:29N 66°00' E 012°16'0 0.0
2018-Jul-14 00:59N 66°00' E 012°16'0 0.0
2018-Jul-14 00:30N 66°00' E 012°16'3 5.3
2018-Jul-14 00:00N 66°02' E 012°11'5 9.5
2018-Jul-13 23:28N 66°06' E 012°07'4 9.1
2018-Jul-13 23:00N 66°10' E 012°12'510.0
2018-Jul-13 22:30N 66°12' E 012°23'5 9.8
2018-Jul-13 22:00N 66°14' E 012°35'4 9.0
2018-Jul-13 21:30N 66°10' E 012°40'1 1.2
2018-Jul-13 21:00N 66°10' E 012°40'0 0.4
2018-Jul-13 20:30N 66°10' E 012°41'0 0.0
2018-Jul-13 20:00N 66°10' E 012°41'0 0.3
2018-Jul-13 19:31N 66°10' E 012°41'0 0.3
2018-Jul-13 19:00N 66°10' E 012°41'0 0.0
2018-Jul-13 18:30N 66°10' E 012°41'0 0.8
2018-Jul-13 18:01N 66°10' E 012°40'1 1.8
2018-Jul-13 17:30N 66°11' E 012°40'4 9.0
2018-Jul-13 17:00N 66°14' E 012°32'611.6
2018-Jul-13 16:30N 66°12' E 012°19'611.2
2018-Jul-13 16:00N 66°08' E 012°08'610.7
2018-Jul-13 15:29N 66°03' E 012°09'4 8.1
2018-Jul-13 15:00N 66°00' E 012°16'0 0.0
2018-Jul-13 14:29N 66°00' E 012°16'0 0.0
2018-Jul-13 13:30N 66°00' E 012°16'0 0.0
2018-Jul-13 13:00N 66°00' E 012°16'0 0.0
2018-Jul-13 12:30N 66°00' E 012°16'0 0.0
2018-Jul-13 12:00N 66°00' E 012°16'0 0.0
2018-Jul-13 11:30N 66°00' E 012°16'0 0.0
2018-Jul-13 11:00N 66°00' E 012°16'0 0.0
2018-Jul-13 10:30N 66°00' E 012°16'0 0.0
2018-Jul-13 10:00N 66°00' E 012°16'0 0.0
2018-Jul-13 09:29N 66°00' E 012°16'0 0.0
2018-Jul-13 09:00N 66°00' E 012°16'0 0.0
2018-Jul-13 08:30N 66°00' E 012°16'0 0.0
2018-Jul-13 08:00N 66°00' E 012°16'0 0.0
2018-Jul-13 07:30N 66°00' E 012°16'0 0.0
2018-Jul-13 06:59N 66°00' E 012°16'0 0.0
2018-Jul-13 06:30N 66°00' E 012°16'0 0.0
2018-Jul-13 06:00N 66°00' E 012°16'0 0.0
2018-Jul-13 05:30N 66°00' E 012°16'0 0.0
2018-Jul-13 05:00N 66°00' E 012°16'0 0.0
2018-Jul-13 04:29N 66°00' E 012°16'0 0.0
2018-Jul-13 04:00N 66°00' E 012°16'0 0.0
2018-Jul-13 03:30N 66°00' E 012°16'0 0.3
2018-Jul-13 03:00N 66°00' E 012°16'5 9.5
2018-Jul-13 02:29N 66°04' E 012°08'510.4
2018-Jul-13 02:00N 66°09' E 012°09'510.5
2018-Jul-13 01:30N 66°12' E 012°19'510.6
2018-Jul-13 01:00N 66°14' E 012°31'4 8.5
2018-Jul-13 00:30N 66°11' E 012°39'2 3.2
2018-Jul-13 00:00N 66°10' E 012°41'0 0.0
2018-Jul-12 23:30N 66°10' E 012°41'0 0.0
2018-Jul-12 23:00N 66°10' E 012°41'0 0.3
2018-Jul-12 22:30N 66°09' E 012°41'0 0.0
2018-Jul-12 22:00N 66°09' E 012°41'0 0.0
2018-Jul-12 21:30N 66°09' E 012°41'1 2.5
2018-Jul-12 21:00N 66°10' E 012°39'5 9.2
2018-Jul-12 20:30N 66°14' E 012°32'611.1
2018-Jul-12 20:00N 66°12' E 012°19'510.6
2018-Jul-12 19:30N 66°09' E 012°08'610.8
2018-Jul-12 19:00N 66°03' E 012°09'4 8.8
2018-Jul-12 18:30N 66°00' E 012°16'0 0.0
2018-Jul-12 18:00N 66°00' E 012°16'0 0.0
2018-Jul-12 17:30N 66°00' E 012°16'0 0.0
2018-Jul-12 17:00N 66°00' E 012°16'0 0.0
2018-Jul-12 16:29N 66°00' E 012°16'0 0.0
2018-Jul-12 16:00N 66°00' E 012°16'0 0.0
2018-Jul-12 15:30N 66°00' E 012°16'0 0.0
2018-Jul-12 15:00N 66°00' E 012°16'0 0.0
2018-Jul-12 14:30N 66°00' E 012°16'0 0.0
2018-Jul-12 14:00N 66°00' E 012°16'0 0.0
2018-Jul-12 13:30N 66°00' E 012°16'0 0.0
2018-Jul-12 13:00N 66°00' E 012°16'0 0.0
2018-Jul-12 12:30N 66°00' E 012°16'0 0.0
2018-Jul-12 12:00N 66°00' E 012°16'0 0.0
2018-Jul-12 11:29N 66°00' E 012°16'0 0.0
2018-Jul-12 11:00N 66°00' E 012°16'0 0.0
2018-Jul-12 10:29N 66°00' E 012°16'0 0.0
2018-Jul-12 10:00N 66°00' E 012°16'0 0.0
2018-Jul-12 09:30N 66°00' E 012°16'0 0.0
2018-Jul-12 09:00N 66°00' E 012°16'0 0.0
2018-Jul-12 08:30N 66°00' E 012°16'0 0.0
2018-Jul-12 08:00N 66°00' E 012°16'0 0.0
2018-Jul-12 07:29N 66°00' E 012°16'0 0.0
2018-Jul-12 07:00N 66°00' E 012°16'0 0.0
2018-Jul-12 06:29N 66°00' E 012°16'0 0.0
2018-Jul-12 06:00N 66°00' E 012°16'0 0.0
2018-Jul-12 05:30N 66°00' E 012°16'0 0.0
2018-Jul-12 05:00N 66°00' E 012°16'0 0.0
2018-Jul-12 04:30N 66°00' E 012°16'0 0.0
2018-Jul-12 04:00N 66°00' E 012°16'0 0.0
2018-Jul-12 03:30N 66°00' E 012°16'0 0.0
2018-Jul-12 03:00N 66°00' E 012°16'2 4.1
2018-Jul-12 02:30N 66°01' E 012°12'510.4
2018-Jul-12 02:00N 66°06' E 012°07'5 9.9
2018-Jul-12 01:30N 66°10' E 012°13'510.9
2018-Jul-12 01:00N 66°13' E 012°25'5 9.9
2018-Jul-12 00:31N 66°13' E 012°37'4 7.0
2018-Jul-12 00:00N 66°10' E 012°40'1 1.6
2018-Jul-11 23:30N 66°09' E 012°41'0 0.1
2018-Jul-11 23:00N 66°09' E 012°41'0 0.0
2018-Jul-11 22:30N 66°09' E 012°41'0 0.0
2018-Jul-11 22:00N 66°09' E 012°41'0 0.1
2018-Jul-11 21:30N 66°09' E 012°41'3 5.5
2018-Jul-11 21:00N 66°12' E 012°38'4 8.7
2018-Jul-11 20:30N 66°13' E 012°28'511.0
2018-Jul-11 20:00N 66°11' E 012°16'510.3
2018-Jul-11 19:31N 66°07' E 012°07'510.8
2018-Jul-11 19:00N 66°02' E 012°10'3 6.2
2018-Jul-11 18:30N 66°00' E 012°16'0 0.0
2018-Jul-11 17:59N 66°00' E 012°16'0 0.0
2018-Jul-11 17:30N 66°00' E 012°16'0 0.0
2018-Jul-11 16:59N 66°00' E 012°16'0 0.0
2018-Jul-11 16:30N 66°00' E 012°16'0 0.0
2018-Jul-11 16:00N 66°00' E 012°16'0 0.0
2018-Jul-11 15:30N 66°00' E 012°16'0 0.0
2018-Jul-11 15:00N 66°00' E 012°16'0 0.0
2018-Jul-11 14:30N 66°00' E 012°16'0 0.0
2018-Jul-11 14:00N 66°00' E 012°16'0 0.0
2018-Jul-11 13:30N 66°00' E 012°16'0 0.0
2018-Jul-11 13:00N 66°00' E 012°16'0 0.0
2018-Jul-11 12:29N 66°00' E 012°16'0 0.0
2018-Jul-11 12:00N 66°00' E 012°16'0 0.0
2018-Jul-11 11:29N 66°00' E 012°16'0 0.0
2018-Jul-11 11:00N 66°00' E 012°16'0 0.0
2018-Jul-11 10:30N 66°00' E 012°16'0 0.0
2018-Jul-11 10:00N 66°00' E 012°16'0 0.0
2018-Jul-11 09:30N 66°00' E 012°16'0 0.0
2018-Jul-11 09:00N 66°00' E 012°16'0 0.0
2018-Jul-11 08:30N 66°00' E 012°16'0 0.0
2018-Jul-11 08:00N 66°00' E 012°16'0 0.0
2018-Jul-11 07:30N 66°00' E 012°16'0 0.0
2018-Jul-11 07:00N 66°00' E 012°16'0 0.0
2018-Jul-11 06:30N 66°00' E 012°16'0 0.0
2018-Jul-11 06:00N 66°00' E 012°16'0 0.0
2018-Jul-11 05:29N 66°00' E 012°16'0 0.0
2018-Jul-11 05:00N 66°00' E 012°16'0 0.0
2018-Jul-11 04:30N 66°00' E 012°16'0 0.0
2018-Jul-11 04:00N 66°00' E 012°16'0 0.0
2018-Jul-11 03:30N 66°00' E 012°16'0 0.1
2018-Jul-11 03:00N 66°00' E 012°16'4 8.3
2018-Jul-11 02:29N 66°03' E 012°09'510.4
2018-Jul-11 02:00N 66°08' E 012°08'510.0
2018-Jul-11 01:30N 66°11' E 012°17'510.7
2018-Jul-11 01:01N 66°14' E 012°29'4 8.2
2018-Jul-11 00:30N 66°12' E 012°39'2 4.5
2018-Jul-11 00:00N 66°10' E 012°41'0 0.2
2018-Jul-10 23:30N 66°10' E 012°41'0 0.0
2018-Jul-10 23:00N 66°10' E 012°41'0 0.0
2018-Jul-10 22:30N 66°10' E 012°41'0 0.5
2018-Jul-10 22:01N 66°10' E 012°40'0 0.4
2018-Jul-10 21:30N 66°10' E 012°40'0 0.7
2018-Jul-10 21:00N 66°10' E 012°41'3 5.7
2018-Jul-10 20:29N 66°12' E 012°38'4 9.0
2018-Jul-10 20:00N 66°13' E 012°27'611.3
2018-Jul-10 19:30N 66°11' E 012°15'510.4
2018-Jul-10 19:00N 66°06' E 012°07'510.9
2018-Jul-10 18:30N 66°01' E 012°12'2 4.4
2018-Jul-10 18:00N 66°00' E 012°16'0 0.0
2018-Jul-10 17:30N 66°00' E 012°16'0 0.0
2018-Jul-10 17:00N 66°00' E 012°16'0 0.0
2018-Jul-10 16:30N 66°00' E 012°16'0 0.0
2018-Jul-10 16:00N 66°00' E 012°16'0 0.0
2018-Jul-10 15:30N 66°00' E 012°16'0 0.0
2018-Jul-10 14:59N 66°00' E 012°16'0 0.0
2018-Jul-10 14:30N 66°00' E 012°16'0 0.0
2018-Jul-10 14:00N 66°00' E 012°16'0 0.0
2018-Jul-10 13:30N 66°00' E 012°16'0 0.0
2018-Jul-10 13:00N 66°00' E 012°16'0 0.0
2018-Jul-10 12:30N 66°00' E 012°16'0 0.0
2018-Jul-10 12:00N 66°00' E 012°16'0 0.0
2018-Jul-10 11:30N 66°00' E 012°16'0 0.0
2018-Jul-10 11:00N 66°00' E 012°16'0 0.0
2018-Jul-10 10:30N 66°00' E 012°16'0 0.0
2018-Jul-10 10:00N 66°00' E 012°16'0 0.0
2018-Jul-10 09:30N 66°00' E 012°16'0 0.0
2018-Jul-10 09:00N 66°00' E 012°16'0 0.0
2018-Jul-10 08:30N 66°00' E 012°16'0 0.0
2018-Jul-10 08:00N 66°00' E 012°16'0 0.0
2018-Jul-10 07:29N 66°00' E 012°16'0 0.0
2018-Jul-10 07:00N 66°00' E 012°16'0 0.0
2018-Jul-10 06:30N 66°00' E 012°16'0 0.0
2018-Jul-10 06:00N 66°00' E 012°16'0 0.0
2018-Jul-10 05:30N 66°00' E 012°16'0 0.0
2018-Jul-10 05:00N 66°00' E 012°16'0 0.5
2018-Jul-10 04:30N 66°00' E 012°16'5 9.6
2018-Jul-10 04:00N 66°04' E 012°08'510.0
2018-Jul-10 03:30N 66°09' E 012°09'5 9.8
2018-Jul-10 03:00N 66°12' E 012°18'510.2
2018-Jul-10 02:30N 66°14' E 012°30'4 8.2
2018-Jul-10 02:00N 66°12' E 012°39'2 4.1
2018-Jul-10 01:30N 66°10' E 012°41'0 0.0
2018-Jul-10 01:00N 66°10' E 012°41'0 0.0
2018-Jul-10 00:30N 66°10' E 012°41'0 0.1
2018-Jul-10 00:00N 66°10' E 012°41'0 0.3
2018-Jul-09 23:30N 66°10' E 012°41'0 0.0
2018-Jul-09 23:00N 66°10' E 012°41'0 0.0
2018-Jul-09 22:30N 66°10' E 012°41'0 0.0
2018-Jul-09 22:00N 66°10' E 012°41'0 0.7
2018-Jul-09 21:30N 66°10' E 012°41'4 8.5
2018-Jul-09 21:00N 66°14' E 012°36'510.3
2018-Jul-09 20:30N 66°13' E 012°24'510.8
2018-Jul-09 20:00N 66°10' E 012°12'510.4
2018-Jul-09 19:29N 66°05' E 012°08'510.1
2018-Jul-09 18:59N 66°01' E 012°14'1 2.3
2018-Jul-09 18:29N 66°00' E 012°16'0 0.0
2018-Jul-09 17:59N 66°00' E 012°16'0 0.0
2018-Jul-09 17:30N 66°00' E 012°16'0 0.0
2018-Jul-09 17:00N 66°00' E 012°16'0 0.0
2018-Jul-09 16:30N 66°00' E 012°16'0 0.0
2018-Jul-09 16:00N 66°00' E 012°16'0 0.0
2018-Jul-09 15:30N 66°00' E 012°16'0 0.0
2018-Jul-09 15:00N 66°00' E 012°16'0 0.0
2018-Jul-09 14:30N 66°00' E 012°16'0 0.0
2018-Jul-09 13:58N 66°00' E 012°16'0 0.0
2018-Jul-09 13:29N 66°00' E 012°16'0 0.0
2018-Jul-09 13:00N 66°00' E 012°16'0 0.0
2018-Jul-09 12:30N 66°00' E 012°16'0 0.0
2018-Jul-09 12:00N 66°00' E 012°16'0 0.0
2018-Jul-09 11:29N 66°00' E 012°16'0 0.0
2018-Jul-09 10:59N 66°00' E 012°16'0 0.0
2018-Jul-09 10:29N 66°00' E 012°16'0 0.0
2018-Jul-09 10:00N 66°00' E 012°16'0 0.0
2018-Jul-09 09:29N 66°00' E 012°16'0 0.0
2018-Jul-09 08:59N 66°00' E 012°16'0 0.0
2018-Jul-09 08:30N 66°00' E 012°16'0 0.0
2018-Jul-09 08:00N 66°00' E 012°16'0 0.0
2018-Jul-09 07:30N 66°00' E 012°16'0 0.0
2018-Jul-09 07:00N 66°00' E 012°16'0 0.0
2018-Jul-09 06:29N 66°00' E 012°16'0 0.0
2018-Jul-09 06:00N 66°00' E 012°16'0 0.0
2018-Jul-09 05:30N 66°00' E 012°16'0 0.0
2018-Jul-09 05:00N 66°00' E 012°16'0 0.0
2018-Jul-09 04:29N 66°00' E 012°16'0 0.0
2018-Jul-09 04:00N 66°00' E 012°16'0 0.0
2018-Jul-09 03:30N 66°00' E 012°16'0 0.0
2018-Jul-09 03:00N 66°00' E 012°16'0 0.0
2018-Jul-09 02:30N 66°00' E 012°16'0 0.0
2018-Jul-09 02:00N 66°00' E 012°16'0 0.0
2018-Jul-09 01:30N 66°00' E 012°16'3 5.4
2018-Jul-09 01:00N 66°02' E 012°11'5 9.6
2018-Jul-09 00:29N 66°06' E 012°07'4 8.8
2018-Jul-09 00:00N 66°10' E 012°12'5 9.4
2018-Jul-08 23:30N 66°12' E 012°22'5 9.5
2018-Jul-08 23:00N 66°14' E 012°33'4 8.9
2018-Jul-08 22:30N 66°10' E 012°39'1 1.6
2018-Jul-08 22:00N 66°10' E 012°40'0 0.5
2018-Jul-08 21:30N 66°09' E 012°40'0 0.3
2018-Jul-08 21:00N 66°10' E 012°40'0 0.1
2018-Jul-08 20:31N 66°10' E 012°40'0 0.9
2018-Jul-08 20:00N 66°10' E 012°41'0 0.4
2018-Jul-08 19:30N 66°10' E 012°41'0 0.0
2018-Jul-08 19:00N 66°10' E 012°41'0 0.0
2018-Jul-08 18:30N 66°10' E 012°41'0 0.0
2018-Jul-08 18:00N 66°10' E 012°41'0 0.0
2018-Jul-08 17:30N 66°10' E 012°41'0 0.0
2018-Jul-08 17:00N 66°10' E 012°41'1 1.3
2018-Jul-08 16:31N 66°09' E 012°40'0 0.7
2018-Jul-08 16:00N 66°10' E 012°40'0 0.2
2018-Jul-08 15:30N 66°10' E 012°40'0 0.3
2018-Jul-08 15:00N 66°10' E 012°40'0 0.0
2018-Jul-08 14:30N 66°10' E 012°40'0 0.5
2018-Jul-08 14:00N 66°10' E 012°40'0 0.1
2018-Jul-08 13:30N 66°10' E 012°40'0 0.1
2018-Jul-08 13:00N 66°10' E 012°40'0 0.2
2018-Jul-08 12:30N 66°10' E 012°40'0 0.5
2018-Jul-08 12:00N 66°10' E 012°40'0 0.2
2018-Jul-08 11:30N 66°10' E 012°40'1 1.9
2018-Jul-08 11:00N 66°10' E 012°39'1 1.5
2018-Jul-08 10:30N 66°10' E 012°40'0 0.7
2018-Jul-08 10:00N 66°09' E 012°40'1 1.5
2018-Jul-08 09:30N 66°10' E 012°40'0 0.7
2018-Jul-08 09:01N 66°10' E 012°40'3 5.0
2018-Jul-08 08:30N 66°12' E 012°38'4 8.2
2018-Jul-08 08:00N 66°13' E 012°29'510.7
2018-Jul-08 07:30N 66°11' E 012°16'510.3
2018-Jul-08 07:00N 66°07' E 012°07'510.7
2018-Jul-08 06:30N 66°02' E 012°10'3 6.6
2018-Jul-08 06:00N 66°00' E 012°16'0 0.3
2018-Jul-08 05:30N 66°00' E 012°16'0 0.0
2018-Jul-08 05:00N 66°00' E 012°16'0 0.0
2018-Jul-08 04:30N 66°00' E 012°16'0 0.0
2018-Jul-08 04:00N 66°00' E 012°16'0 0.0
2018-Jul-08 03:30N 66°00' E 012°16'0 0.0
2018-Jul-08 03:00N 66°00' E 012°16'0 0.0
2018-Jul-08 02:30N 66°00' E 012°16'0 0.0
2018-Jul-08 01:59N 66°00' E 012°16'0 0.0
2018-Jul-08 01:30N 66°00' E 012°16'0 0.0
2018-Jul-08 01:00N 66°00' E 012°16'0 0.0
2018-Jul-08 00:30N 66°00' E 012°16'0 0.0
2018-Jul-08 00:00N 66°00' E 012°16'0 0.0
2018-Jul-07 23:30N 66°00' E 012°16'0 0.0
2018-Jul-07 23:00N 66°00' E 012°16'0 0.0
2018-Jul-07 22:30N 66°00' E 012°16'0 0.0
2018-Jul-07 22:00N 66°00' E 012°16'0 0.0
2018-Jul-07 21:29N 66°00' E 012°16'0 0.0
2018-Jul-07 21:00N 66°00' E 012°16'0 0.0
2018-Jul-07 20:29N 66°00' E 012°16'0 0.0
2018-Jul-07 20:00N 66°00' E 012°16'0 0.0
2018-Jul-07 19:30N 66°00' E 012°16'0 0.0
2018-Jul-07 19:00N 66°00' E 012°16'0 0.0
2018-Jul-07 18:30N 66°00' E 012°16'0 0.0
2018-Jul-07 18:00N 66°00' E 012°16'0 0.0
2018-Jul-07 17:30N 66°00' E 012°16'0 0.0
2018-Jul-07 17:00N 66°00' E 012°16'0 0.0
2018-Jul-07 16:30N 66°00' E 012°16'0 0.0
2018-Jul-07 15:59N 66°00' E 012°16'0 0.0
2018-Jul-07 15:30N 66°00' E 012°16'0 0.0
2018-Jul-07 15:00N 66°00' E 012°16'0 0.0
2018-Jul-07 14:30N 66°00' E 012°16'0 0.0
2018-Jul-07 14:00N 66°00' E 012°16'0 0.0
2018-Jul-07 13:30N 66°00' E 012°16'0 0.0
2018-Jul-07 13:00N 66°00' E 012°16'0 0.0
2018-Jul-07 12:30N 66°00' E 012°16'0 0.0
2018-Jul-07 12:00N 66°00' E 012°16'0 0.0
2018-Jul-07 11:30N 66°00' E 012°16'0 0.0
2018-Jul-07 11:00N 66°00' E 012°16'0 0.0
2018-Jul-07 10:30N 66°00' E 012°16'0 0.0
2018-Jul-07 10:00N 66°00' E 012°16'0 0.0
2018-Jul-07 09:30N 66°00' E 012°16'0 0.0
2018-Jul-07 09:00N 66°00' E 012°16'0 0.0
2018-Jul-07 08:30N 66°00' E 012°16'0 0.0
2018-Jul-07 07:59N 66°00' E 012°16'0 0.0
2018-Jul-07 07:29N 66°00' E 012°16'0 0.0
2018-Jul-07 07:00N 66°00' E 012°16'0 0.0
2018-Jul-07 06:29N 66°00' E 012°16'0 0.0
2018-Jul-07 05:59N 66°00' E 012°16'0 0.0
2018-Jul-07 05:30N 66°00' E 012°16'0 0.0
2018-Jul-07 05:00N 66°00' E 012°16'0 0.0
2018-Jul-07 04:29N 66°00' E 012°16'0 0.0
2018-Jul-07 04:00N 66°00' E 012°16'0 0.0
2018-Jul-07 03:30N 66°00' E 012°16'0 0.0
2018-Jul-07 03:00N 66°00' E 012°16'0 0.0
2018-Jul-07 02:30N 66°00' E 012°16'0 0.0
2018-Jul-07 01:59N 66°00' E 012°16'0 0.0
2018-Jul-07 01:29N 66°00' E 012°16'0 0.0
2018-Jul-07 01:00N 66°00' E 012°16'0 0.0
2018-Jul-07 00:29N 66°00' E 012°16'0 0.0
2018-Jul-07 00:00N 66°00' E 012°16'0 0.0
2018-Jul-06 23:30N 66°00' E 012°16'0 0.0
2018-Jul-06 22:59N 66°00' E 012°16'0 0.0
2018-Jul-06 22:30N 66°00' E 012°16'0 0.0
2018-Jul-06 22:00N 66°00' E 012°16'0 0.0
2018-Jul-06 21:30N 66°00' E 012°16'0 0.0
2018-Jul-06 20:59N 66°00' E 012°16'0 0.0
2018-Jul-06 20:30N 66°00' E 012°16'0 0.0
2018-Jul-06 20:00N 66°00' E 012°16'0 0.0
2018-Jul-06 19:29N 66°00' E 012°16'0 0.0
2018-Jul-06 19:00N 66°00' E 012°16'0 0.0
2018-Jul-06 18:30N 66°00' E 012°16'0 0.0
2018-Jul-06 18:00N 66°00' E 012°16'0 0.0
2018-Jul-06 17:30N 66°00' E 012°16'0 0.0
2018-Jul-06 17:00N 66°00' E 012°16'0 0.0
2018-Jul-06 16:29N 66°00' E 012°16'0 0.0
2018-Jul-06 16:00N 66°00' E 012°16'  

Dump ship's entire track history